Time;durP1;ratioP1;P1;durP2;ratioP2;P2;SDS_P1;SDS_P2;PMS_P1;PMS_P2;Temp;Humidity;BMP_temperature;BMP_pressure;BME280_temperature;BME280_humidity;BME280_pressure;Samples;Min_cycle;Max_cycle;Signal;HPM_P1;HPM_P2
2022/11/19 00:01:53;;;;;;;28.67;17.42;;;;;;;5.87;100.00;100743.88;5041019;28;20112;-79
2022/11/19 00:04:19;;;;;;;35.00;18.80;;;;;;;5.75;100.00;100738.78;5041485;28;20029;-79
2022/11/19 00:06:44;;;;;;;36.35;19.52;;;;;;;5.67;100.00;100756.06;5050470;28;20025;-79
2022/11/19 00:09:13;;;;;;;40.40;21.48;;;;;;;5.60;100.00;100755.25;5047130;28;20021;-79
2022/11/19 00:14:22;;;;;;;38.53;21.27;;;;;;;5.43;100.00;100757.03;5041998;28;20096;-79
2022/11/19 00:16:47;;;;;;;38.00;21.27;;;;;;;5.30;100.00;100756.22;5048466;28;20045;-79
2022/11/19 00:19:13;;;;;;;40.33;21.38;;;;;;;5.29;100.00;100759.66;5033767;28;20029;-79
2022/11/19 00:21:39;;;;;;;44.55;23.45;;;;;;;5.24;100.00;100755.38;5036058;28;20025;-78
2022/11/19 00:24:05;;;;;;;40.03;22.77;;;;;;;5.18;100.00;100752.81;5032733;28;20075;-79
2022/11/19 00:26:30;;;;;;;42.55;22.92;;;;;;;5.21;100.00;100758.84;5046792;28;20477;-79
2022/11/19 00:28:55;;;;;;;39.50;21.88;;;;;;;5.18;100.00;100760.56;5047758;28;20148;-79
2022/11/19 00:31:20;;;;;;;36.78;21.50;;;;;;;5.09;100.00;100757.13;5048567;28;20414;-79
2022/11/19 00:33:49;;;;;;;39.70;21.27;;;;;;;5.12;100.00;100771.78;5041247;28;20029;-79
2022/11/19 00:36:15;;;;;;;43.85;22.35;;;;;;;5.10;100.00;100771.78;5050302;28;20492;-79
2022/11/19 00:38:42;;;;;;;38.95;21.38;;;;;;;5.07;100.00;100776.97;5043487;28;20018;-79
2022/11/19 00:41:07;;;;;;;40.00;22.30;;;;;;;5.01;100.00;100773.53;5037761;28;20032;-79
2022/11/19 00:43:48;;;;;;;38.55;21.65;;;;;;;5.05;100.00;100770.06;5047352;28;20094;-79
2022/11/19 00:46:18;;;;;;;39.50;21.75;;;;;;;4.96;100.00;100776.09;5035874;28;20053;-79
2022/11/19 00:48:43;;;;;;;43.47;21.80;;;;;;;4.96;100.00;100773.53;5040831;28;20079;-79
2022/11/19 00:51:09;;;;;;;35.85;20.40;;;;;;;4.99;100.00;100772.66;5037413;28;20465;-79
2022/11/19 00:53:35;;;;;;;39.20;21.55;;;;;;;4.97;100.00;100779.53;5047943;28;20059;-79
2022/11/19 00:56:02;;;;;;;37.80;20.52;;;;;;;4.98;100.00;100783.88;5049820;28;20032;-79
2022/11/19 00:58:28;;;;;;;39.85;20.55;;;;;;;4.93;100.00;100778.69;5041994;28;20086;-79
2022/11/19 01:00:53;;;;;;;41.10;20.60;;;;;;;4.92;100.00;100782.16;5049171;28;20040;-79
2022/11/19 01:03:19;;;;;;;37.35;20.65;;;;;;;4.85;100.00;100783.00;5051438;28;20029;-79
2022/11/19 01:05:44;;;;;;;36.92;20.90;;;;;;;4.82;100.00;100793.34;5041725;28;20041;-79
2022/11/19 01:08:09;;;;;;;40.25;21.25;;;;;;;4.70;100.00;100787.31;5032948;28;20029;-79
2022/11/19 01:10:35;;;;;;;43.28;22.38;;;;;;;4.69;100.00;100792.50;5039912;28;20029;-79
2022/11/19 01:15:49;;;;;;;43.10;22.88;;;;;;;4.67;100.00;100802.81;5044362;28;20056;-78
2022/11/19 01:18:16;;;;;;;45.60;23.27;;;;;;;4.69;100.00;100802.81;5041641;28;20580;-79
2022/11/19 01:20:42;;;;;;;41.70;23.38;;;;;;;4.67;100.00;100807.97;5046281;28;20021;-79
2022/11/19 01:23:07;;;;;;;46.90;24.65;;;;;;;4.67;100.00;100812.28;5038684;28;20033;-79
2022/11/19 01:25:33;;;;;;;46.25;24.33;;;;;;;4.61;100.00;100809.69;5052270;28;20025;-78
2022/11/19 01:27:58;;;;;;;43.70;24.42;;;;;;;4.65;100.00;100808.84;5048471;28;20026;-79
2022/11/19 01:30:23;;;;;;;47.80;25.73;;;;;;;4.63;100.00;100823.47;5050534;28;20033;-79
2022/11/19 01:32:49;;;;;;;41.97;23.83;;;;;;;4.59;100.00;100816.59;5050065;28;20026;-79
2022/11/19 01:35:14;;;;;;;43.97;24.05;;;;;;;4.57;100.00;100823.47;5040356;28;20491;-79
2022/11/19 01:37:40;;;;;;;41.35;23.02;;;;;;;4.54;100.00;100833.78;5049299;28;20025;-79
2022/11/19 01:40:05;;;;;;;42.90;22.10;;;;;;;4.50;100.00;100832.06;5050569;28;20075;-79
2022/11/19 01:42:48;;;;;;;39.67;22.48;;;;;;;4.48;100.00;100832.09;5054693;28;20471;-79
2022/11/19 01:45:35;;;;;;;38.10;22.02;;;;;;;4.41;100.00;100828.63;5046262;28;20483;-78
2022/11/19 01:48:28;;;;;;;37.83;21.58;;;;;;;4.30;100.00;100832.03;5049758;28;20037;-78
2022/11/19 01:50:57;;;;;;;37.90;23.08;;;;;;;4.27;100.00;100843.22;5044015;28;20078;-79
2022/11/19 01:53:28;;;;;;;43.13;22.60;;;;;;;4.23;100.00;100839.75;5047801;28;20736;-79
2022/11/19 01:55:55;;;;;;;40.28;21.63;;;;;;;4.26;100.00;100838.06;5041361;28;20519;-78
2022/11/19 01:58:23;;;;;;;39.33;22.90;;;;;;;4.23;100.00;100841.50;5048524;28;20033;-78
2022/11/19 02:00:48;;;;;;;39.72;22.15;;;;;;;4.21;100.00;100840.63;5048548;28;20174;-78
2022/11/19 02:03:15;;;;;;;41.45;22.60;;;;;;;4.23;100.00;100831.16;5050475;28;20108;-78
2022/11/19 02:05:41;;;;;;;40.60;22.73;;;;;;;4.17;100.00;100841.47;5050982;28;20029;-78
2022/11/19 02:08:09;;;;;;;41.80;23.50;;;;;;;4.18;100.00;100850.94;5041024;28;20075;-78
2022/11/19 02:10:49;;;;;;;44.80;23.75;;;;;;;4.15;100.00;100846.66;5050735;28;20463;-78
2022/11/19 02:13:32;;;;;;;40.47;22.38;;;;;;;4.12;100.00;100854.38;5038874;28;20481;-79
2022/11/19 02:16:39;;;;;;;39.67;22.92;;;;;;;4.12;100.00;100845.75;5048695;28;20029;-78
2022/11/19 02:19:23;;;;;;;40.35;22.35;;;;;;;4.11;100.00;100851.75;5040621;28;20033;-79
2022/11/19 02:22:20;;;;;;;37.47;21.30;;;;;;;4.05;100.00;100844.84;5040110;28;20033;-78
2022/11/19 02:24:54;;;;;;;36.13;21.88;;;;;;;4.06;100.00;100848.34;5049481;28;20045;-79
2022/11/19 02:27:56;;;;;;;35.95;20.90;;;;;;;4.04;100.00;100852.59;5051028;28;20507;-79
2022/11/19 02:30:21;;;;;;;38.58;21.42;;;;;;;4.02;100.00;100859.47;5052994;28;20100;-78
2022/11/19 02:32:49;;;;;;;39.20;22.17;;;;;;;3.99;100.00;100856.03;5053163;28;20106;-79
2022/11/19 02:35:29;;;;;;;34.10;20.40;;;;;;;4.01;100.00;100853.47;5051124;28;20033;-79
2022/11/19 02:38:22;;;;;;;34.00;20.17;;;;;;;3.98;100.00;100859.47;5052174;28;20028;-79
2022/11/19 02:40:57;;;;;;;36.40;20.83;;;;;;;3.89;100.00;100855.97;5040331;28;20021;-79
2022/11/19 02:43:35;;;;;;;33.95;19.75;;;;;;;3.86;100.00;100859.44;5041234;28;20112;-79
2022/11/19 02:46:09;;;;;;;32.95;19.77;;;;;;;3.79;100.00;100852.50;5039450;28;20535;-79
2022/11/19 02:48:39;;;;;;;37.20;19.95;;;;;;;3.80;100.00;100858.53;5045130;28;20484;-79
2022/11/19 02:51:06;;;;;;;33.45;19.60;;;;;;;3.72;100.00;100855.91;5038831;28;20021;-79
2022/11/19 02:53:32;;;;;;;36.97;19.92;;;;;;;3.73;100.00;100871.41;5041612;28;20111;-78
2022/11/19 02:56:09;;;;;;;30.92;18.50;;;;;;;3.71;100.00;100870.53;5036857;28;20113;-79
2022/11/19 03:04:28;;;;;;;23.65;14.55;;;;;;;3.55;100.00;100885.91;5051190;28;20090;-79
2022/11/19 03:06:58;;;;;;;23.25;14.50;;;;;;;3.49;100.00;100874.69;5050981;28;20078;-78
2022/11/19 03:09:23;;;;;;;21.50;13.90;;;;;;;3.48;100.00;100887.59;5037122;28;20021;-78
2022/11/19 03:11:58;;;;;;;27.05;15.18;;;;;;;3.35;100.00;100884.06;5045483;28;20053;-79
2022/11/19 03:17:20;;;;;;;24.02;15.57;;;;;;;3.18;100.00;100886.53;5052190;28;20098;-79
2022/11/19 03:19:49;;;;;;;21.42;14.35;;;;;;;3.21;100.00;100896.00;5038446;28;20055;-79
2022/11/19 03:22:20;;;;;;;22.23;14.40;;;;;;;3.19;100.00;100895.09;5052086;28;20029;-78
2022/11/19 03:25:00;;;;;;;23.33;14.70;;;;;;;3.01;100.00;100883.81;5051116;28;20063;-78
2022/11/19 03:27:35;;;;;;;23.45;15.02;;;;;;;2.94;100.00;100879.47;5037975;28;20041;-78
2022/11/19 03:30:02;;;;;;;24.90;15.93;;;;;;;2.96;100.00;100892.34;5052073;28;20040;-78
2022/11/19 03:32:36;;;;;;;25.00;15.55;;;;;;;2.96;100.00;100902.66;5041926;28;20117;-78
2022/11/19 03:35:10;;;;;;;23.58;15.20;;;;;;;3.00;100.00;100907.81;5046382;28;20052;-78
2022/11/19 03:37:38;;;;;;;27.30;16.88;;;;;;;2.93;100.00;100898.34;5051514;28;20051;-78
2022/11/19 03:40:07;;;;;;;27.30;16.40;;;;;;;2.90;100.00;100900.88;5042269;28;20027;-78
2022/11/19 03:42:33;;;;;;;27.45;17.42;;;;;;;2.88;100.00;100901.72;5048060;28;20117;-78
2022/11/19 03:45:03;;;;;;;29.15;17.35;;;;;;;2.83;100.00;100895.66;5037145;28;20079;-78
2022/11/19 03:47:35;;;;;;;26.95;17.38;;;;;;;2.85;100.00;100905.13;5047210;28;20121;-78
2022/11/19 03:50:32;;;;;;;27.83;17.45;;;;;;;2.84;100.00;100907.69;5042156;28;20083;-78
2022/11/19 03:52:58;;;;;;;29.70;18.02;;;;;;;2.77;100.00;100896.47;5046286;28;20819;-78
2022/11/19 03:55:31;;;;;;;32.95;18.50;;;;;;;2.85;100.00;100925.75;5046097;28;20025;-78
2022/11/19 03:58:03;;;;;;;27.92;16.60;;;;;;;2.87;100.00;100913.72;5040076;28;20029;-78
2022/11/19 04:00:28;;;;;;;33.00;18.33;;;;;;;2.89;100.00;100911.19;5035303;28;20022;-78
2022/11/19 04:02:53;;;;;;;29.10;17.45;;;;;;;2.91;100.00;100915.50;5033992;28;20377;-78
2022/11/19 04:05:19;;;;;;;28.40;17.60;;;;;;;2.84;100.00;100908.53;5039122;28;20036;-78
2022/11/19 04:07:44;;;;;;;29.67;18.55;;;;;;;2.84;100.00;100907.69;5044685;28;20167;-78
2022/11/19 04:10:09;;;;;;;34.03;19.45;;;;;;;2.86;100.00;100919.72;5036578;28;20041;-78
2022/11/19 04:12:34;;;;;;;35.72;19.48;;;;;;;2.78;100.00;100918.81;5032661;28;20092;-78
2022/11/19 04:15:00;;;;;;;33.67;20.02;;;;;;;2.80;100.00;100917.09;5037782;28;20094;-78
2022/11/19 04:17:25;;;;;;;33.70;19.95;;;;;;;2.77;100.00;100911.91;5040943;28;20029;-78
2022/11/19 04:19:50;;;;;;;33.63;20.58;;;;;;;2.82;100.00;100917.97;5033202;28;20138;-78
2022/11/19 04:22:15;;;;;;;35.90;20.52;;;;;;;2.76;100.00;100930.78;5037945;28;20038;-78
2022/11/19 04:24:41;;;;;;;35.22;19.70;;;;;;;2.74;100.00;100935.06;5048045;28;20128;-78
2022/11/19 04:27:06;;;;;;;34.45;20.10;;;;;;;2.73;100.00;100938.47;5044053;28;20025;-78
2022/11/19 04:29:31;;;;;;;34.25;20.15;;;;;;;2.65;100.00;100942.69;5037066;28;20041;-78
2022/11/19 04:31:57;;;;;;;34.22;19.73;;;;;;;2.66;100.00;100949.56;5037135;28;20025;-78
2022/11/19 04:34:22;;;;;;;33.83;20.90;;;;;;;2.56;100.00;100934.03;5051110;28;20025;-78
2022/11/19 04:36:47;;;;;;;41.03;19.83;;;;;;;2.65;100.00;100946.13;5047695;28;21641;-78
2022/11/19 04:39:12;;;;;;;35.22;20.13;;;;;;;2.66;100.00;100955.59;5037179;28;20045;-78
2022/11/19 04:41:38;;;;;;;37.42;21.17;;;;;;;2.57;100.00;100947.75;5037882;28;20515;-77
2022/11/19 04:44:04;;;;;;;38.83;21.17;;;;;;;2.58;100.00;100955.50;5035094;28;20017;-78
2022/11/19 04:46:30;;;;;;;38.10;21.38;;;;;;;2.60;100.00;100960.66;5039869;28;20025;-78
2022/11/19 04:48:56;;;;;;;38.25;21.00;;;;;;;2.60;100.00;100950.38;5033599;28;20480;-78
2022/11/19 04:51:21;;;;;;;38.30;21.50;;;;;;;2.51;100.00;100943.38;5037638;28;20078;-77
2022/11/19 04:53:47;;;;;;;40.63;22.70;;;;;;;2.60;100.00;100967.53;5049802;28;20098;-78
2022/11/19 04:56:12;;;;;;;40.58;23.05;;;;;;;2.51;100.00;100945.97;5035461;28;20069;-78
2022/11/19 04:58:37;;;;;;;36.53;21.00;;;;;;;2.48;100.00;100950.22;5036058;28;20096;-78
2022/11/19 05:01:03;;;;;;;43.63;22.77;;;;;;;2.53;100.00;100964.00;5051463;28;20025;-77
2022/11/19 05:03:28;;;;;;;37.63;22.27;;;;;;;2.46;100.00;100959.66;5043930;28;20036;-78
2022/11/19 05:05:53;;;;;;;41.75;23.23;;;;;;;2.51;100.00;100971.69;5047461;28;20024;-77
2022/11/19 05:08:19;;;;;;;40.13;22.65;;;;;;;2.48;100.00;100966.50;5036780;28;20029;-78
2022/11/19 05:10:44;;;;;;;38.35;22.33;;;;;;;2.47;100.00;100962.22;5046933;28;20040;-77
2022/11/19 05:13:09;;;;;;;40.13;23.45;;;;;;;2.43;100.00;100964.75;5051038;28;20484;-77
2022/11/19 05:15:35;;;;;;;37.72;21.83;;;;;;;2.45;100.00;100978.50;5055246;28;20138;-78
2022/11/19 05:18:00;;;;;;;40.03;23.33;;;;;;;2.48;100.00;100981.97;5042627;28;20021;-78
2022/11/19 05:20:26;;;;;;;38.22;22.27;;;;;;;2.45;100.00;100991.34;5039415;28;20032;-78
2022/11/19 05:22:51;;;;;;;37.17;22.02;;;;;;;2.32;100.00;100972.31;5037730;28;20049;-78
2022/11/19 05:25:16;;;;;;;38.60;24.00;;;;;;;2.42;100.00;100987.06;5034443;28;20033;-77
2022/11/19 05:27:41;;;;;;;38.30;22.70;;;;;;;2.34;100.00;100991.22;5039131;28;20044;-77
2022/11/19 05:30:08;;;;;;;39.53;21.50;;;;;;;2.31;100.00;100984.34;5047022;28;20017;-77
2022/11/19 05:32:35;;;;;;;41.60;23.77;;;;;;;2.32;100.00;100995.47;5041124;28;20084;-77
2022/11/19 05:35:00;;;;;;;40.97;24.35;;;;;;;2.30;100.00;100992.91;5042614;28;20026;-78
2022/11/19 05:37:26;;;;;;;39.75;22.65;;;;;;;2.21;100.00;100994.50;5035915;28;20040;-77
2022/11/19 05:39:51;;;;;;;39.58;23.05;;;;;;;2.30;100.00;101010.91;5041120;28;20119;-77
2022/11/19 05:42:16;;;;;;;39.83;23.25;;;;;;;2.22;100.00;101004.78;5043850;28;20139;-77
2022/11/19 05:44:41;;;;;;;40.05;22.92;;;;;;;2.20;100.00;101006.50;5039071;28;20408;-77
2022/11/19 05:47:07;;;;;;;40.15;24.13;;;;;;;2.16;100.00;101009.88;5047591;28;20022;-77
2022/11/19 05:49:32;;;;;;;40.22;23.50;;;;;;;2.17;100.00;101010.75;5042637;28;20032;-77
2022/11/19 05:51:57;;;;;;;42.67;24.73;;;;;;;2.20;100.00;101010.78;5044686;28;20024;-77
2022/11/19 05:54:22;;;;;;;42.40;25.70;;;;;;;2.21;100.00;101017.66;5038045;28;20104;-77
2022/11/19 05:56:48;;;;;;;47.38;25.25;;;;;;;2.09;100.00;101013.19;5038765;28;20029;-77
2022/11/19 05:59:14;;;;;;;39.95;24.80;;;;;;;2.17;100.00;101024.47;5046639;28;20029;-78
2022/11/19 06:01:39;;;;;;;40.70;24.92;;;;;;;2.10;100.00;101030.38;5044082;28;20468;-77
2022/11/19 06:04:04;;;;;;;42.03;24.50;;;;;;;2.01;100.00;101012.22;5049953;28;20158;-77
2022/11/19 06:06:30;;;;;;;43.35;25.85;;;;;;;2.04;100.00;101023.41;5035560;28;20367;-77
2022/11/19 06:08:55;;;;;;;42.63;25.17;;;;;;;2.08;100.00;101032.03;5043389;28;20032;-78
2022/11/19 06:14:04;;;;;;;40.42;25.88;;;;;;;2.04;100.00;101032.84;5042521;28;20095;-77
2022/11/19 06:16:29;;;;;;;45.38;25.15;;;;;;;1.96;100.00;101031.84;5052331;28;20029;-77
2022/11/19 06:18:54;;;;;;;41.50;25.27;;;;;;;1.95;100.00;101037.84;5045124;28;20120;-77
2022/11/19 06:21:20;;;;;;;41.25;24.35;;;;;;;1.99;100.00;101047.34;5041241;28;20029;-77
2022/11/19 06:23:45;;;;;;;43.45;25.73;;;;;;;2.03;100.00;101046.56;5051209;28;20039;-77
2022/11/19 06:26:20;;;;;;;44.00;25.17;;;;;;;1.98;100.00;101051.63;5049713;28;20024;-77
2022/11/19 06:28:45;;;;;;;43.40;25.48;;;;;;;1.93;100.00;101039.53;5039568;28;20037;-78
2022/11/19 06:31:10;;;;;;;41.13;24.42;;;;;;;2.04;100.00;101056.00;5050099;28;20041;-77
2022/11/19 06:33:36;;;;;;;46.30;25.88;;;;;;;2.06;100.00;101065.47;5046170;28;20082;-77
2022/11/19 06:36:01;;;;;;;41.53;24.73;;;;;;;2.07;100.00;101071.47;5040215;28;20025;-77
2022/11/19 06:38:26;;;;;;;44.03;25.77;;;;;;;2.08;100.00;101076.63;5047984;28;20029;-77
2022/11/19 06:40:51;;;;;;;45.25;25.58;;;;;;;2.10;100.00;101069.81;5044032;28;20492;-77
2022/11/19 06:43:17;;;;;;;42.45;25.85;;;;;;;2.16;100.00;101076.75;5033059;28;20033;-79
2022/11/19 06:45:42;;;;;;;43.28;26.70;;;;;;;2.09;100.00;101078.38;5044373;28;20036;-79
2022/11/19 06:48:07;;;;;;;45.40;26.95;;;;;;;2.04;100.00;101063.72;5040903;28;20380;-79
2022/11/19 06:50:32;;;;;;;43.70;26.85;;;;;;;2.11;100.00;101066.38;5033840;28;20037;-79
2022/11/19 06:52:58;;;;;;;48.33;27.50;;;;;;;2.16;100.00;101084.47;5041935;28;20464;-79
2022/11/19 06:55:23;;;;;;;45.45;25.88;;;;;;;2.09;100.00;101074.91;5034682;28;20029;-79
2022/11/19 06:57:48;;;;;;;46.28;28.75;;;;;;;2.08;100.00;101078.34;5037646;28;20021;-79
2022/11/19 07:00:14;;;;;;;45.70;25.85;;;;;;;2.06;100.00;101080.91;5036441;28;20026;-79
2022/11/19 07:02:39;;;;;;;47.55;27.35;;;;;;;1.99;100.00;101078.19;5043578;28;20113;-79
2022/11/19 07:05:06;;;;;;;47.40;27.23;;;;;;;1.95;100.00;101082.41;5038214;28;20484;-79
2022/11/19 07:07:32;;;;;;;47.97;27.55;;;;;;;1.96;100.00;101097.03;5039479;28;20033;-79
2022/11/19 07:09:58;;;;;;;49.30;28.20;;;;;;;1.91;100.00;101093.50;5040961;28;20108;-79
2022/11/19 07:12:23;;;;;;;47.55;27.02;;;;;;;1.87;100.00;101092.59;5052068;28;20456;-79
2022/11/19 07:14:48;;;;;;;51.13;27.92;;;;;;;1.90;100.00;101106.31;5051389;28;20032;-78
2022/11/19 07:17:13;;;;;;;49.13;28.67;;;;;;;1.89;100.00;101100.31;5040092;28;20026;-78
2022/11/19 07:19:39;;;;;;;53.10;29.40;;;;;;;1.91;100.00;101106.38;5037881;28;20086;-78
2022/11/19 07:22:04;;;;;;;50.25;28.83;;;;;;;1.80;100.00;101102.75;5035913;28;20488;-78
2022/11/19 07:24:30;;;;;;;52.63;28.65;;;;;;;1.82;100.00;101106.22;5047056;28;20032;-79
2022/11/19 07:26:55;;;;;;;51.58;28.70;;;;;;;1.83;100.00;101119.09;5034135;28;20464;-79
2022/11/19 07:29:20;;;;;;;52.50;26.75;;;;;;;1.84;100.00;101107.13;5045879;28;20026;-78
2022/11/19 07:31:49;;;;;;;52.78;29.23;;;;;;;1.84;100.00;101113.09;5032573;28;20435;-78
2022/11/19 07:34:15;;;;;;;52.30;28.63;;;;;;;1.85;100.00;101113.97;5045020;28;20052;-79
2022/11/19 07:36:40;;;;;;;53.05;30.13;;;;;;;1.80;100.00;101124.19;5034484;28;20025;-78
2022/11/19 07:39:06;;;;;;;74.55;39.92;;;;;;;1.85;100.00;101129.41;5034229;28;20021;-78
2022/11/19 07:44:15;;;;;;;50.22;28.73;;;;;;;1.84;100.00;101135.38;5035093;28;20311;-77
2022/11/19 07:46:40;;;;;;;51.50;28.92;;;;;;;1.87;100.00;101138.88;5036177;28;20114;-77
2022/11/19 07:49:06;;;;;;;50.88;28.80;;;;;;;1.80;100.00;101128.47;5032652;28;20109;-78
2022/11/19 07:51:31;;;;;;;62.88;35.17;;;;;;;1.90;100.00;101144.88;5045380;28;20036;-78
2022/11/19 07:53:56;;;;;;;58.78;31.95;;;;;;;1.81;100.00;101141.34;5039067;28;20108;-77
2022/11/19 07:56:23;;;;;;;60.05;31.35;;;;;;;1.86;100.00;101155.16;5052197;28;20558;-78
2022/11/19 07:58:48;;;;;;;49.35;29.45;;;;;;;1.91;100.00;101154.34;5041953;28;20431;-78
2022/11/19 08:01:19;;;;;;;52.80;28.33;;;;;;;1.96;100.00;101151.03;5038614;28;20017;-77
2022/11/19 08:03:46;;;;;;;51.05;29.25;;;;;;;1.99;100.00;101155.34;5034762;28;20392;-77
2022/11/19 08:06:14;;;;;;;53.03;29.17;;;;;;;1.98;100.00;101157.03;5037936;28;20017;-78
2022/11/19 08:08:39;;;;;;;50.20;28.42;;;;;;;1.95;100.00;101146.69;5043099;28;20079;-79
2022/11/19 08:11:07;;;;;;;52.25;29.23;;;;;;;1.96;100.00;101156.16;5034226;28;20029;-79
2022/11/19 08:13:33;;;;;;;50.10;28.05;;;;;;;1.96;100.00;101156.16;5042006;28;20396;-79
2022/11/19 08:16:04;;;;;;;52.28;29.90;;;;;;;2.00;100.00;101157.09;5049226;28;20044;-79
2022/11/19 08:18:30;;;;;;;53.28;28.42;;;;;;;2.00;100.00;101163.09;5036244;28;20025;-79
2022/11/19 08:21:01;;;;;;;53.40;28.75;;;;;;;2.04;100.00;101170.00;5036728;28;20018;-78
2022/11/19 08:23:26;;;;;;;52.10;28.83;;;;;;;2.10;100.00;101166.69;5032391;28;20491;-78
2022/11/19 08:25:51;;;;;;;51.97;29.02;;;;;;;2.13;100.00;101163.28;5032743;28;20025;-78
2022/11/19 08:28:17;;;;;;;50.30;27.90;;;;;;;2.17;100.00;101159.94;5033002;28;20108;-78
2022/11/19 08:30:44;;;;;;;52.97;28.02;;;;;;;2.16;100.00;101171.03;5039538;28;20033;-79
2022/11/19 08:33:09;;;;;;;50.83;28.02;;;;;;;2.18;100.00;101167.66;5038044;28;20026;-79
2022/11/19 08:35:34;;;;;;;46.58;26.00;;;;;;;2.18;100.00;101161.66;5041387;28;20031;-79
2022/11/19 08:38:00;;;;;;;50.63;28.75;;;;;;;2.19;100.00;101168.50;5036311;28;20120;-78
2022/11/19 08:40:26;;;;;;;54.00;28.77;;;;;;;2.23;100.00;101165.16;5042927;28;20036;-78
2022/11/19 08:43:00;;;;;;;49.80;26.48;;;;;;;2.28;100.00;101172.09;5031735;28;20033;-78
2022/11/19 08:45:37;;;;;;;47.28;26.60;;;;;;;2.24;100.00;101172.91;5035293;28;20041;-77
2022/11/19 08:48:05;;;;;;;48.35;27.00;;;;;;;2.28;100.00;101171.25;5032534;28;20465;-77
2022/11/19 08:50:31;;;;;;;50.25;25.77;;;;;;;2.26;100.00;101178.09;5048288;28;20036;-79
2022/11/19 08:53:02;;;;;;;53.05;28.60;;;;;;;2.27;100.00;101180.66;5046757;28;20029;-76
2022/11/19 08:55:30;;;;;;;51.78;27.42;;;;;;;2.30;100.00;101182.44;5043893;28;20030;-77
2022/11/19 08:58:00;;;;;;;48.75;27.00;;;;;;;2.27;100.00;101183.25;5043373;28;20161;-79
2022/11/19 09:00:26;;;;;;;46.70;26.25;;;;;;;2.35;100.00;101191.06;5039091;28;20505;-79
2022/11/19 09:02:51;;;;;;;48.80;26.77;;;;;;;2.32;100.00;101193.59;5033064;28;20024;-79
2022/11/19 09:05:16;;;;;;;51.55;26.30;;;;;;;2.34;100.00;101197.06;5046620;28;20021;-79
2022/11/19 09:07:41;;;;;;;47.97;26.55;;;;;;;2.33;100.00;101192.78;5034291;28;20520;-79
2022/11/19 09:10:08;;;;;;;50.22;26.33;;;;;;;2.33;100.00;101193.63;5035416;28;20021;-79
2022/11/19 09:12:33;;;;;;;52.42;28.15;;;;;;;2.27;100.00;101184.94;5045901;28;20017;-79
2022/11/19 09:14:58;;;;;;;45.15;26.20;;;;;;;2.29;100.00;101194.44;5043912;28;20029;-79
2022/11/19 09:17:23;;;;;;;66.53;33.50;;;;;;;2.31;100.00;101199.59;5031348;28;20021;-79
2022/11/19 09:19:49;;;;;;;77.25;36.35;;;;;;;2.30;100.00;101203.00;5040902;28;20080;-79
2022/11/19 09:22:14;;;;;;;46.47;26.08;;;;;;;2.28;100.00;101207.25;5031032;28;20033;-79
2022/11/19 09:24:39;;;;;;;58.63;28.38;;;;;;;2.34;100.00;101212.50;5033534;28;20079;-78
2022/11/19 09:27:04;;;;;;;46.75;25.33;;;;;;;2.31;100.00;101208.16;5041807;28;20029;-78
2022/11/19 09:29:30;;;;;;;54.92;27.83;;;;;;;2.29;100.00;101220.16;5036455;28;20021;-78
2022/11/19 09:31:55;;;;;;;47.53;25.85;;;;;;;2.27;100.00;101218.41;5030622;28;20034;-78
2022/11/19 09:34:20;;;;;;;45.38;23.88;;;;;;;2.15;100.00;101205.31;5031552;28;20060;-78
2022/11/19 09:36:46;;;;;;;62.90;30.77;;;;;;;2.25;100.00;101212.34;5031110;28;20046;-78
2022/11/19 09:39:11;;;;;;;43.83;22.88;;;;;;;2.22;100.00;101226.03;5050462;28;20075;-78
2022/11/19 09:42:01;;;;;;;44.05;22.73;;;;;;;2.26;100.00;101227.81;5047366;28;20018;-78
2022/11/19 09:44:45;;;;;;;47.83;25.58;;;;;;;2.21;100.00;101232.00;5046136;28;20033;-78
2022/11/19 09:47:13;;;;;;;;;;;;;;;2.30;100.00;101239.03;5044006;28;20100;-75
2022/11/19 09:49:48;;;;;;;50.90;23.05;;;;;;;2.25;100.00;101236.38;5055044;28;19923;-76
2022/11/19 09:52:18;;;;;;;43.20;23.98;;;;;;;2.26;100.00;101247.56;5046266;28;20025;-77
2022/11/19 09:54:53;;;;;;;48.53;27.60;;;;;;;2.26;100.00;101244.97;5044605;28;20040;-77
2022/11/19 09:57:30;;;;;;;43.72;25.25;;;;;;;2.31;100.00;101253.63;5043417;28;20028;-77
2022/11/19 09:59:59;;;;;;;48.20;25.38;;;;;;;2.24;100.00;101256.94;5049015;28;20049;-77
2022/11/19 10:02:25;;;;;;;43.75;25.48;;;;;;;2.20;100.00;101252.59;5044053;28;20484;-77
2022/11/19 10:04:50;;;;;;;43.05;23.70;;;;;;;2.26;100.00;101252.69;5034960;28;20037;-77
2022/11/19 10:07:29;;;;;;;41.78;22.25;;;;;;;2.25;100.00;101256.09;5034262;28;20047;-76
2022/11/19 10:10:09;;;;;;;41.33;23.40;;;;;;;2.24;100.00;101256.94;5034535;28;20417;-77
2022/11/19 10:13:10;;;;;;;45.50;25.42;;;;;;;2.22;100.00;101256.03;5033958;28;20112;-77
2022/11/19 10:16:02;;;;;;;46.42;24.80;;;;;;;2.21;100.00;101254.31;5034937;28;20029;-77
2022/11/19 10:18:34;;;;;;;38.92;22.10;;;;;;;2.23;100.00;101261.22;5044854;28;20454;-77
2022/11/19 10:21:30;;;;;;;41.35;23.70;;;;;;;2.15;100.00;101246.47;5043936;28;20029;-77
2022/11/19 10:24:04;;;;;;;42.35;23.23;;;;;;;2.17;100.00;101260.25;5038875;28;20293;-77
2022/11/19 10:26:34;;;;;;;43.80;23.65;;;;;;;2.04;100.00;101267.72;5033381;28;20021;-77
2022/11/19 10:29:03;;;;;;;44.45;23.45;;;;;;;1.99;100.00;101269.34;5037660;28;20539;-77
2022/11/19 10:31:34;;;;;;;42.53;23.95;;;;;;;1.94;100.00;101250.41;5034096;28;20059;-77
2022/11/19 10:34:18;;;;;;;40.58;22.10;;;;;;;2.09;100.00;101272.94;5035645;28;20029;-77
2022/11/19 10:36:49;;;;;;;47.60;24.23;;;;;;;2.06;100.00;101275.47;5052186;28;20032;-77
2022/11/19 10:39:38;;;;;;;39.38;21.63;;;;;;;2.07;100.00;101278.06;5051788;28;20043;-77
2022/11/19 10:42:17;;;;;;;40.67;23.45;;;;;;;2.09;100.00;101286.69;5038757;28;20378;-78
2022/11/19 10:44:52;;;;;;;37.80;20.58;;;;;;;2.10;100.00;101279.84;5036651;28;20108;-78
2022/11/19 10:47:22;;;;;;;42.95;23.15;;;;;;;2.08;100.00;101261.81;5040549;28;20032;-78
2022/11/19 10:49:55;;;;;;;39.80;22.73;;;;;;;2.19;100.00;101273.97;5039434;28;20040;-78
2022/11/19 10:52:23;;;;;;;38.13;21.33;;;;;;;2.22;100.00;101279.19;5054420;28;20031;-78
2022/11/19 10:55:38;;;;;;;42.13;22.88;;;;;;;2.25;100.00;101267.22;5051741;28;20033;-78
2022/11/19 10:58:16;;;;;;;37.45;20.58;;;;;;;2.23;100.00;101270.66;5007845;28;20112;-78
2022/11/19 11:00:42;;;;;;;41.00;21.83;;;;;;;2.22;100.00;101271.47;5035854;28;20248;-78
2022/11/19 11:03:26;;;;;;;43.38;24.27;;;;;;;2.24;100.00;101267.22;5037515;28;20013;-78
2022/11/19 11:06:00;;;;;;;;;;;;;;;2.29;100.00;101274.19;5053028;28;20120;-78
2022/11/19 11:08:26;;;;;;;37.63;21.02;;;;;;;2.24;100.00;101278.38;5050455;28;19952;-77
2022/11/19 11:10:52;;;;;;;37.83;21.63;;;;;;;2.19;100.00;101264.59;5046770;28;20560;-77
2022/11/19 11:16:38;;;;;;;37.75;20.83;;;;;;;2.27;100.00;101264.72;5052347;28;20446;-80
2022/11/19 11:19:15;;;;;;;35.28;20.52;;;;;;;2.32;100.00;101275.91;5052543;28;20040;-79
2022/11/19 11:21:42;;;;;;;39.78;22.65;;;;;;;2.33;100.00;101269.97;5048128;28;20024;-73
2022/11/19 11:24:10;;;;;;;35.85;20.83;;;;;;;2.32;100.00;101274.25;5035673;28;20112;-75
2022/11/19 11:26:36;;;;;;;36.53;20.40;;;;;;;2.33;100.00;101280.25;5044381;28;20057;-77
2022/11/19 11:29:11;;;;;;;37.35;19.83;;;;;;;2.43;100.00;101268.41;5045273;28;20021;-78
2022/11/19 11:31:39;;;;;;;34.10;19.23;;;;;;;2.35;100.00;101270.84;5052538;28;20037;-77
2022/11/19 11:34:12;;;;;;;39.47;20.77;;;;;;;2.30;100.00;101255.34;5054237;28;20029;-78
2022/11/19 11:36:37;;;;;;;37.22;19.85;;;;;;;2.32;100.00;101253.66;5045394;28;20037;-78
2022/11/19 11:39:04;;;;;;;35.40;20.00;;;;;;;2.33;100.00;101262.25;5045159;28;20481;-76
2022/11/19 11:41:42;;;;;;;33.92;18.33;;;;;;;2.28;100.00;101262.16;5045695;28;20036;-76